Terminal Aerodrome Forecast
Issued by NWS Paducah, KY

Home | Current Version | Previous Version | Text Only | Print | Product List | Glossary Off
Versions: 1 2 3 4 5 6 7 8 9 10 11 12 13 14 15 16 17

911
FTUS43 KPAH 220827 AAA
TAFPAH
TAF AMD
KPAH 220827Z 2208/2306 00000KT 3SM BR SKC
      TEMPO 2208/2212 3/4SM BR
     FM221400 10005KT P6SM FEW035=

USA.gov is the U.S. government's official web portal to all federal, state and local government web resources and services.